Terminal Aerodrome Forecast
Issued by NWS

Home | Current Version | Previous Version | Text Only | Print | Product List | Glossary On
Versions: 1 2 3 4 5 6 7 8 9 10 11 12 13 14 15 16 17 18 19 20 21 22 23 24 25 26 27 28 29 30 31 32 33 34 35 36 37 38
000
FTUS44 KHGX 201309 AAA
TAFUTS
TAF AMD
KUTS 201309Z 2013/2112 VRB03KT 6SM BR OVC006
      TEMPO 2013/2015 2SM BR OVC003
     FM201500 01004KT P6SM SCT010 OVC015
     FM202000 03003KT P6SM SCT015 BKN025
     FM211000 VRB03KT P6SM SCT030=

USA.gov is the U.S. government's official web portal to all federal, state and local government web resources and services.